Hansa Limburg — A8IH6 — position and weather

sailwx.info

Track history (hours):
 
Tides and Currents Weather Stations Pressure Air Temp Water Temp Dewpoint Dewpoint Depression Visibility Wind Speed Wind Dir Waves Ship Positions

Hansa Limburg

Last reported at 2015-Apr-21 00:16 UTC. Time now 2015-Apr-21 05:03 UTC.
Position N 31°15' E 032°22'.

Length 175.5 m; beam 27.4 m; draft 10.9 m.

Type: Ship (hazmat cat A). MMSI: 636090980.

Date/timePositionNaut miles runAvg speedWind from/ knotsBaromVisibWave heightAir tempDewpointWater temp
2015-Apr-21 00:16N 31°15' E 032°22'7 8.8
2015-Apr-20 23:28N 31°22' E 032°21'4 2.3
2015-Apr-20 21:33N 31°22' E 032°16'0 0.0
2015-Apr-20 20:27N 31°22' E 032°16'0 0.0
2015-Apr-20 19:33N 31°22' E 032°16'0 0.0
2015-Apr-20 18:33N 31°22' E 032°16'0 0.0
2015-Apr-20 17:30N 31°22' E 032°16'27 2.0
2015-Apr-20 04:06N 31°28' E 031°46'0 0.0
2015-Apr-20 03:15N 31°28' E 031°46'0 0.0
2015-Apr-20 02:28N 31°28' E 031°46'0 0.0
2015-Apr-20 01:33N 31°28' E 031°46'0 0.0
2015-Apr-20 00:33N 31°28' E 031°46'0 0.0
2015-Apr-19 23:33N 31°28' E 031°46'0 0.0
2015-Apr-19 22:28N 31°28' E 031°46'8 7.3
2015-Apr-19 21:21N 31°36' E 031°47'5 5.7
2015-Apr-19 20:32N 31°40' E 031°45'3310.5
2015-Apr-19 17:24N 31°45' E 031°07'910.8
2015-Apr-19 16:33N 31°44' E 030°56'1110.9
2015-Apr-19 15:33N 31°42' E 030°43'1111.0
2015-Apr-19 14:33N 31°40' E 030°31'1111.1
2015-Apr-19 13:33N 31°38' E 030°18'1111.1
2015-Apr-19 12:33N 31°30' E 030°08'1111.1
2015-Apr-19 11:33N 31°23' E 029°59'18 1.3
2015-Apr-18 21:24N 31°11' E 029°43'0 0.0
2015-Apr-18 19:15N 31°11' E 029°43'0 0.0
2015-Apr-18 18:07N 31°11' E 029°43'0 0.0
2015-Apr-18 00:30N 31°11' E 029°43'0 0.0
2015-Apr-17 22:06N 31°11' E 029°43'0 0.0
2015-Apr-17 21:34N 31°11' E 029°43'0 0.0
2015-Apr-17 20:33N 31°11' E 029°43'0 0.0
2015-Apr-17 19:32N 31°11' E 029°43'0 0.0
2015-Apr-17 18:30N 31°11' E 029°43'0 0.0
2015-Apr-17 17:24N 31°11' E 029°43'0 0.0
2015-Apr-17 16:33N 31°11' E 029°43'0 0.0
2015-Apr-17 13:09N 31°11' E 029°43'0 0.0
2015-Apr-16 22:27N 31°11' E 029°43'0 0.0
2015-Apr-16 20:28N 31°11' E 029°43'0 0.0
2015-Apr-16 15:20N 31°11' E 029°43'  
2015-Apr-12 08:20N 36°35' E 014°47'1417.8
2015-Apr-12 07:33N 36°40' E 014°32'1817.9
2015-Apr-12 06:33N 36°47' E 014°11'1817.7
2015-Apr-12 05:33N 36°54' E 013°51'1918.3
2015-Apr-12 04:33N 37°01' E 013°29'6117.5
2015-Apr-12 01:05N 37°28' E 012°21'2717.0
2015-Apr-11 23:28N 37°43' E 011°51'2417.1
2015-Apr-11 22:03N 37°56' E 011°26'11217.2
2015-Apr-11 15:33N 38°57' E 009°26'1716.9
2015-Apr-11 14:33N 39°06' E 009°08'7 7.2
2015-Apr-11 13:33N 39°13' E 009°04'0 0.0
2015-Apr-11 12:33N 39°13' E 009°04'0 0.0
2015-Apr-11 11:33N 39°13' E 009°04'0 0.0
2015-Apr-11 10:33N 39°13' E 009°04'0 0.0
2015-Apr-11 09:23N 39°13' E 009°04'0 0.0
2015-Apr-11 08:23N 39°13' E 009°04'0 0.0
2015-Apr-11 07:33N 39°13' E 009°04'0 0.0
2015-Apr-11 06:33N 39°13' E 009°04'0 0.0
2015-Apr-11 05:33N 39°13' E 009°04'0 0.0
2015-Apr-11 04:33N 39°13' E 009°04'0 0.0
2015-Apr-11 03:33N 39°13' E 009°04'0 0.0
2015-Apr-11 02:33N 39°13' E 009°04'0 0.0
2015-Apr-11 01:33N 39°13' E 009°04'0 0.0
2015-Apr-11 00:33N 39°13' E 009°04'  
Track history (hours):
 
Tides and Currents Weather Stations Pressure Air Temp Water Temp Dewpoint Dewpoint Depression Visibility Wind Speed Wind Dir Waves Ship Positions

Hansa Limburg

Last reported at 2015-Apr-21 00:16 UTC. Time now 2015-Apr-21 05:03 UTC.
Position N 31°15' E 032°22'.

Length 175.5 m; beam 27.4 m; draft 10.9 m.

Type: Ship (hazmat cat A). MMSI: 636090980.

Date/timePositionNaut miles runAvg speedWind from/ knotsBaromVisibWave heightAir tempDewpointWater temp
2015-Apr-21 00:16N 31°15' E 032°22'7 8.8
2015-Apr-20 23:28N 31°22' E 032°21'4 2.3
2015-Apr-20 21:33N 31°22' E 032°16'0 0.0
2015-Apr-20 20:27N 31°22' E 032°16'0 0.0
2015-Apr-20 19:33N 31°22' E 032°16'0 0.0
2015-Apr-20 18:33N 31°22' E 032°16'0 0.0
2015-Apr-20 17:30N 31°22' E 032°16'27 2.0
2015-Apr-20 04:06N 31°28' E 031°46'0 0.0
2015-Apr-20 03:15N 31°28' E 031°46'0 0.0
2015-Apr-20 02:28N 31°28' E 031°46'0 0.0
2015-Apr-20 01:33N 31°28' E 031°46'0 0.0
2015-Apr-20 00:33N 31°28' E 031°46'0 0.0
2015-Apr-19 23:33N 31°28' E 031°46'0 0.0
2015-Apr-19 22:28N 31°28' E 031°46'8 7.3
2015-Apr-19 21:21N 31°36' E 031°47'5 5.7
2015-Apr-19 20:32N 31°40' E 031°45'3310.5
2015-Apr-19 17:24N 31°45' E 031°07'910.8
2015-Apr-19 16:33N 31°44' E 030°56'1110.9
2015-Apr-19 15:33N 31°42' E 030°43'1111.0
2015-Apr-19 14:33N 31°40' E 030°31'1111.1
2015-Apr-19 13:33N 31°38' E 030°18'1111.1
2015-Apr-19 12:33N 31°30' E 030°08'1111.1
2015-Apr-19 11:33N 31°23' E 029°59'18 1.3
2015-Apr-18 21:24N 31°11' E 029°43'0 0.0
2015-Apr-18 19:15N 31°11' E 029°43'0 0.0
2015-Apr-18 18:07N 31°11' E 029°43'0 0.0
2015-Apr-18 00:30N 31°11' E 029°43'0 0.0
2015-Apr-17 22:06N 31°11' E 029°43'0 0.0
2015-Apr-17 21:34N 31°11' E 029°43'0 0.0
2015-Apr-17 20:33N 31°11' E 029°43'0 0.0
2015-Apr-17 19:32N 31°11' E 029°43'0 0.0
2015-Apr-17 18:30N 31°11' E 029°43'0 0.0
2015-Apr-17 17:24N 31°11' E 029°43'0 0.0
2015-Apr-17 16:33N 31°11' E 029°43'0 0.0
2015-Apr-17 13:09N 31°11' E 029°43'0 0.0
2015-Apr-16 22:27N 31°11' E 029°43'0 0.0
2015-Apr-16 20:28N 31°11' E 029°43'0 0.0
2015-Apr-16 15:20N 31°11' E 029°43'  
2015-Apr-12 08:20N 36°35' E 014°47'1417.8
2015-Apr-12 07:33N 36°40' E 014°32'1817.9
2015-Apr-12 06:33N 36°47' E 014°11'1817.7
2015-Apr-12 05:33N 36°54' E 013°51'1918.3
2015-Apr-12 04:33N 37°01' E 013°29'6117.5
2015-Apr-12 01:05N 37°28' E 012°21'2717.0
2015-Apr-11 23:28N 37°43' E 011°51'2417.1
2015-Apr-11 22:03N 37°56' E 011°26'11217.2
2015-Apr-11 15:33N 38°57' E 009°26'1716.9
2015-Apr-11 14:33N 39°06' E 009°08'7 7.2
2015-Apr-11 13:33N 39°13' E 009°04'0 0.0
2015-Apr-11 12:33N 39°13' E 009°04'0 0.0
2015-Apr-11 11:33N 39°13' E 009°04'0 0.0
2015-Apr-11 10:33N 39°13' E 009°04'0 0.0
2015-Apr-11 09:23N 39°13' E 009°04'0 0.0
2015-Apr-11 08:23N 39°13' E 009°04'0 0.0
2015-Apr-11 07:33N 39°13' E 009°04'0 0.0
2015-Apr-11 06:33N 39°13' E 009°04'0 0.0
2015-Apr-11 05:33N 39°13' E 009°04'0 0.0
2015-Apr-11 04:33N 39°13' E 009°04'0 0.0
2015-Apr-11 03:33N 39°13' E 009°04'0 0.0
2015-Apr-11 02:33N 39°13' E 009°04'0 0.0
2015-Apr-11 01:33N 39°13' E 009°04'0 0.0
2015-Apr-11 00:33N 39°13' E 009°04'  

Dump ship's entire track history